createdAt,value
2022-10-11T00:03:04.593Z,1.67
2022-10-11T00:05:31.367Z,1.33
2022-10-11T00:07:57.701Z,1.52
2022-10-11T00:12:50.930Z,2.10
2022-10-11T00:15:20.132Z,2.67
2022-10-11T00:17:46.497Z,2.95
2022-10-11T00:22:40.552Z,2.60
2022-10-11T00:25:09.084Z,3.05
2022-10-11T00:27:36.055Z,3.13
2022-10-11T00:30:02.377Z,3.95
2022-10-11T00:34:55.167Z,2.08
2022-10-11T00:37:21.762Z,2.53
2022-10-11T00:39:48.083Z,2.35
2022-10-11T00:44:50.411Z,1.75
2022-10-11T00:47:20.187Z,1.80
2022-10-11T00:50:01.293Z,2.22
2022-10-11T00:52:38.879Z,2.05
2022-10-11T00:55:09.304Z,2.80
2022-10-11T00:57:41.834Z,2.28
2022-10-11T01:00:10.938Z,1.60
2022-10-11T01:02:39.118Z,5.20
2022-10-11T01:05:28.152Z,4.68
2022-10-11T01:07:54.594Z,1.90
2022-10-11T01:13:34.004Z,2.40
2022-10-11T01:16:17.110Z,1.85
2022-10-11T01:18:49.868Z,1.40
2022-10-11T01:21:40.995Z,2.10
2022-10-11T01:24:46.696Z,3.15
2022-10-11T01:27:34.331Z,2.28
2022-10-11T01:30:23.841Z,2.42
2022-10-11T01:33:02.217Z,1.88
2022-10-11T01:38:24.464Z,1.65
2022-10-11T01:40:55.082Z,2.03
2022-10-11T01:43:24.015Z,5.90
2022-10-11T01:45:52.369Z,5.85
2022-10-11T01:48:19.407Z,2.25
2022-10-11T01:50:51.667Z,4.55
2022-10-11T01:53:46.181Z,1.75
2022-10-11T01:56:35.641Z,2.17
2022-10-11T01:59:21.294Z,1.80
2022-10-11T02:02:23.544Z,2.28
2022-10-11T02:05:03.115Z,2.45
2022-10-11T02:07:45.458Z,2.50
2022-10-11T02:10:28.612Z,1.95
2022-10-11T02:13:03.014Z,1.65
2022-10-11T02:15:32.645Z,2.20
2022-10-11T02:18:02.341Z,4.40
2022-10-11T02:20:32.693Z,1.98
2022-10-11T02:23:11.875Z,2.40
2022-10-11T02:25:39.225Z,1.63
2022-10-11T02:28:14.852Z,1.70
2022-10-11T02:30:44.105Z,2.22
2022-10-11T02:33:14.353Z,2.10
2022-10-11T02:35:45.399Z,2.20
2022-10-11T02:38:18.970Z,5.05
2022-10-11T02:40:50.543Z,2.53
2022-10-11T02:43:22.545Z,2.80
2022-10-11T02:45:54.058Z,3.00
2022-10-11T02:48:20.965Z,2.80
2022-10-11T02:50:47.316Z,2.22
2022-10-11T02:55:39.920Z,3.03
2022-10-11T03:00:32.534Z,4.20
2022-10-11T03:05:25.244Z,2.88
2022-10-11T03:07:51.624Z,2.00
2022-10-11T03:12:44.314Z,1.63
2022-10-11T03:15:10.706Z,2.22
2022-10-11T03:20:05.776Z,1.65
2022-10-11T03:22:32.106Z,2.63
2022-10-11T03:27:30.773Z,2.20
2022-10-11T03:29:57.087Z,5.03
2022-10-11T03:34:49.666Z,3.83
2022-10-11T03:39:42.204Z,3.08
2022-10-11T03:44:34.744Z,3.10
2022-10-11T03:49:27.298Z,3.85
2022-10-11T03:54:19.874Z,4.75
2022-10-11T03:56:46.252Z,4.40
2022-10-11T04:01:38.847Z,3.20
2022-10-11T04:06:32.380Z,2.22
2022-10-11T04:08:59.344Z,2.42
2022-10-11T04:11:25.708Z,2.80
2022-10-11T04:16:18.259Z,4.18
2022-10-11T04:21:10.881Z,2.88
2022-10-11T04:26:08.117Z,3.38
2022-10-11T04:28:35.372Z,3.30
2022-10-11T04:31:01.879Z,5.38
2022-10-11T04:33:28.220Z,2.63
2022-10-11T04:38:21.007Z,4.10
2022-10-11T04:43:14.543Z,8.57
2022-10-11T04:45:40.879Z,6.15
2022-10-11T04:48:07.193Z,3.30
2022-10-11T04:50:33.640Z,3.60
2022-10-11T04:55:26.441Z,2.72
2022-10-11T04:57:52.882Z,2.83
2022-10-11T05:02:45.432Z,2.92
2022-10-11T05:05:11.720Z,4.15
2022-10-11T05:07:38.038Z,2.92
2022-10-11T05:10:04.700Z,3.03
2022-10-11T05:12:31.000Z,2.75
2022-10-11T05:14:57.278Z,3.17
2022-10-11T05:17:23.599Z,3.20
2022-10-11T05:19:49.918Z,3.58
2022-10-11T05:22:16.246Z,3.00
2022-10-11T05:24:42.535Z,4.40
2022-10-11T05:27:08.863Z,5.85
2022-10-11T05:29:35.180Z,4.88
2022-10-11T05:32:01.484Z,6.05
2022-10-11T05:34:27.882Z,5.15
2022-10-11T05:39:20.462Z,8.95
2022-10-11T05:41:46.742Z,3.05
2022-10-11T05:44:13.076Z,5.20
2022-10-11T05:49:05.656Z,6.38
2022-10-11T05:51:32.086Z,4.47
2022-10-11T05:56:25.864Z,3.67
2022-10-11T05:58:52.764Z,4.00
2022-10-11T06:01:22.122Z,3.78
2022-10-11T06:03:48.944Z,7.28
2022-10-11T06:06:15.996Z,5.72
2022-10-11T06:08:42.329Z,3.75
2022-10-11T06:13:38.649Z,3.10
2022-10-11T06:18:31.949Z,4.03
2022-10-11T06:23:25.651Z,4.57
2022-10-11T06:26:07.619Z,3.55
2022-10-11T06:28:35.725Z,5.38
2022-10-11T06:31:04.776Z,4.93
2022-10-11T06:33:31.152Z,3.22
2022-10-11T06:36:04.120Z,3.25
2022-10-11T06:38:30.670Z,3.15
2022-10-11T06:40:57.702Z,2.78
2022-10-11T06:43:24.005Z,2.40
2022-10-11T06:48:16.586Z,2.78
2022-10-11T06:50:59.159Z,2.58
2022-10-11T06:53:27.634Z,2.53
2022-10-11T06:55:53.941Z,2.45
2022-10-11T06:58:20.260Z,2.47
2022-10-11T07:00:46.641Z,2.42
2022-10-11T07:03:12.996Z,2.30
2022-10-11T07:05:39.328Z,2.40
2022-10-11T07:08:05.684Z,2.47
2022-10-11T07:10:31.997Z,2.60
2022-10-11T07:12:58.335Z,2.00
2022-10-11T07:15:24.692Z,2.25
2022-10-11T07:17:50.986Z,2.60
2022-10-11T07:20:17.402Z,3.40
2022-10-11T07:22:43.766Z,2.85
2022-10-11T07:25:10.103Z,3.30
2022-10-11T07:27:36.503Z,3.03
2022-10-11T07:30:02.877Z,3.30
2022-10-11T07:32:29.179Z,3.10
2022-10-11T07:34:55.513Z,2.90
2022-10-11T07:37:21.844Z,3.05
2022-10-11T07:39:49.175Z,2.65
2022-10-11T07:42:15.537Z,2.33
2022-10-11T07:44:41.828Z,2.83
2022-10-11T07:47:11.265Z,2.90
2022-10-11T07:49:37.971Z,2.90
2022-10-11T07:52:04.796Z,2.53
2022-10-11T07:54:31.315Z,2.53
2022-10-11T07:56:57.596Z,2.63
2022-10-11T07:59:23.925Z,2.88
2022-10-11T08:01:50.360Z,2.58
2022-10-11T08:04:16.777Z,2.60
2022-10-11T08:06:43.123Z,2.70
2022-10-11T08:09:09.444Z,2.80
2022-10-11T08:11:37.309Z,2.70
2022-10-11T08:14:05.555Z,2.50
2022-10-11T08:16:31.957Z,2.78
2022-10-11T08:18:58.330Z,2.80
2022-10-11T08:21:25.215Z,2.90
2022-10-11T08:23:51.553Z,2.58
2022-10-11T08:26:18.513Z,2.90
2022-10-11T08:28:45.050Z,3.20
2022-10-11T08:31:13.502Z,2.65
2022-10-11T08:33:39.972Z,2.63
2022-10-11T08:36:07.096Z,2.63
2022-10-11T08:38:35.992Z,3.13
2022-10-11T08:41:02.358Z,2.70
2022-10-11T08:43:54.583Z,2.60
2022-10-11T08:46:26.144Z,2.47
2022-10-11T08:48:53.043Z,3.03
2022-10-11T08:51:33.597Z,2.45
2022-10-11T08:54:14.238Z,2.75
2022-10-11T08:56:41.402Z,2.05
2022-10-11T08:59:13.732Z,2.10
2022-10-11T09:02:03.507Z,2.10
2022-10-11T09:04:29.828Z,2.25
2022-10-11T09:07:07.209Z,2.53
2022-10-11T09:09:51.608Z,2.05
2022-10-11T09:12:40.927Z,2.10
2022-10-11T09:15:10.461Z,2.25
2022-10-11T09:17:58.911Z,1.92
2022-10-11T09:20:38.154Z,1.85
2022-10-11T09:23:16.514Z,1.75
2022-10-11T09:25:52.910Z,1.70
2022-10-11T09:28:26.830Z,2.00
2022-10-11T09:30:55.694Z,1.58
2022-10-11T09:33:32.453Z,1.65
2022-10-11T09:35:59.178Z,1.42
2022-10-11T09:38:45.867Z,1.70
2022-10-11T09:41:33.581Z,1.60
2022-10-11T09:43:59.954Z,2.00
2022-10-11T09:46:37.244Z,2.00
2022-10-11T09:49:11.885Z,1.92
2022-10-11T09:51:41.004Z,1.45
2022-10-11T09:54:07.352Z,1.58
2022-10-11T09:56:39.826Z,1.55
2022-10-11T09:59:07.548Z,1.35
2022-10-11T10:01:33.991Z,1.20
2022-10-11T10:04:11.096Z,1.33
2022-10-11T10:06:38.274Z,1.20
2022-10-11T10:09:26.187Z,1.35
2022-10-11T10:11:54.655Z,0.93
2022-10-11T10:14:25.145Z,1.05
2022-10-11T10:17:06.577Z,1.45
2022-10-11T10:19:44.754Z,1.42
2022-10-11T10:22:22.560Z,1.20
2022-10-11T10:24:50.910Z,1.15
2022-10-11T10:27:20.791Z,1.48
2022-10-11T10:30:10.178Z,1.27
2022-10-11T10:32:48.480Z,1.63
2022-10-11T10:35:38.706Z,1.50
2022-10-11T10:38:26.202Z,1.00
2022-10-11T10:40:56.127Z,1.17
2022-10-11T10:43:26.225Z,1.05
2022-10-11T10:45:52.482Z,1.20
2022-10-11T10:51:57.824Z,0.93
2022-10-11T10:54:39.076Z,1.27
2022-10-11T10:57:19.433Z,1.25
2022-10-11T10:59:51.745Z,1.48
2022-10-11T11:02:40.357Z,1.50
2022-10-11T11:05:33.586Z,1.30
2022-10-11T11:08:22.285Z,1.08
2022-10-11T11:11:02.990Z,1.38
2022-10-11T11:13:40.240Z,1.65
2022-10-11T11:16:21.868Z,1.40
2022-10-11T11:18:53.394Z,1.00
2022-10-11T11:21:54.758Z,1.25
2022-10-11T11:24:32.932Z,1.63
2022-10-11T11:27:10.154Z,1.10
2022-10-11T11:29:55.526Z,1.15
2022-10-11T11:32:48.408Z,1.40
2022-10-11T11:35:29.126Z,1.27
2022-10-11T11:38:06.329Z,1.40
2022-10-11T11:40:39.202Z,1.20
2022-10-11T11:43:20.951Z,1.67
2022-10-11T11:46:01.106Z,1.20
2022-10-11T11:48:27.414Z,1.75
2022-10-11T11:51:01.950Z,1.50
2022-10-11T11:53:48.790Z,1.58
2022-10-11T11:56:44.475Z,1.35
2022-10-11T11:59:27.032Z,1.42
2022-10-11T12:01:56.077Z,1.50
2022-10-11T12:04:28.614Z,1.88
2022-10-11T12:07:17.046Z,1.48
2022-10-11T12:09:46.638Z,1.60
2022-10-11T12:12:33.253Z,1.30
2022-10-11T12:15:25.812Z,1.50
2022-10-11T12:17:55.031Z,1.48
2022-10-11T12:20:28.617Z,1.73
2022-10-11T12:23:04.387Z,1.73
2022-10-11T12:25:35.381Z,1.92
2022-10-11T12:28:23.302Z,1.63
2022-10-11T12:30:51.074Z,1.42
2022-10-11T12:33:23.610Z,1.73
2022-10-11T12:35:55.803Z,1.63
2022-10-11T12:38:25.125Z,1.60
2022-10-11T12:40:54.178Z,1.50
2022-10-11T12:43:30.805Z,1.35
2022-10-11T12:45:57.296Z,1.50
2022-10-11T12:48:45.364Z,1.83
2022-10-11T12:51:35.029Z,1.70
2022-10-11T12:54:26.824Z,1.60
2022-10-11T12:57:06.398Z,1.30
2022-10-11T12:59:46.009Z,1.42
2022-10-11T13:02:39.364Z,1.30
2022-10-11T13:05:30.851Z,1.25
2022-10-11T13:08:02.490Z,1.50
2022-10-11T13:10:32.984Z,1.50
2022-10-11T13:13:01.407Z,1.50
2022-10-11T13:15:28.522Z,1.70
2022-10-11T13:17:59.533Z,1.40
2022-10-11T13:20:29.829Z,1.60
2022-10-11T13:22:57.104Z,1.50
2022-10-11T13:25:27.364Z,1.58
2022-10-11T13:27:55.794Z,1.60
2022-10-11T13:30:34.104Z,1.60
2022-10-11T13:33:01.692Z,1.50
2022-10-11T13:35:32.785Z,1.27
2022-10-11T13:37:59.909Z,1.30
2022-10-11T13:40:27.001Z,1.65
2022-10-11T13:42:54.941Z,2.47
2022-10-11T13:45:29.086Z,1.50
2022-10-11T13:47:55.538Z,1.45
2022-10-11T13:50:31.846Z,1.20
2022-10-11T13:53:02.957Z,1.67
2022-10-11T13:55:33.387Z,1.40
2022-10-11T13:58:01.776Z,1.30
2022-10-11T14:00:34.679Z,1.65
2022-10-11T14:03:12.471Z,2.08
2022-10-11T14:05:42.345Z,1.67
2022-10-11T14:08:21.588Z,1.40
2022-10-11T14:10:52.840Z,1.30
2022-10-11T14:13:25.010Z,1.35
2022-10-11T14:15:59.857Z,1.23
2022-10-11T14:18:42.674Z,1.30
2022-10-11T14:21:45.945Z,1.50
2022-10-11T14:24:13.322Z,1.23
2022-10-11T14:26:42.457Z,1.50
2022-10-11T14:29:24.251Z,1.38
2022-10-11T14:31:51.363Z,1.40
2022-10-11T14:34:22.590Z,1.58
2022-10-11T14:36:50.026Z,1.92
2022-10-11T14:39:19.444Z,2.40
2022-10-11T14:41:46.156Z,1.33
2022-10-11T14:44:13.648Z,1.55
2022-10-11T14:46:40.185Z,1.50
2022-10-11T14:49:13.710Z,1.50
2022-10-11T14:51:40.282Z,1.25
2022-10-11T14:54:06.698Z,1.95
2022-10-11T14:56:33.091Z,1.42
2022-10-11T14:58:59.399Z,1.83
2022-10-11T15:01:25.890Z,1.35
2022-10-11T15:03:52.335Z,1.63
2022-10-11T15:06:21.334Z,1.63
2022-10-11T15:08:48.341Z,2.08
2022-10-11T15:11:17.244Z,1.85
2022-10-11T15:13:44.226Z,1.50
2022-10-11T15:16:14.133Z,1.35
2022-10-11T15:18:40.915Z,2.00
2022-10-11T15:21:07.821Z,1.33
2022-10-11T15:23:34.144Z,1.42
2022-10-11T15:26:00.448Z,1.48
2022-10-11T15:28:32.369Z,1.48
2022-10-11T15:33:25.547Z,1.42
2022-10-11T15:35:52.179Z,1.83
2022-10-11T15:38:23.567Z,1.35
2022-10-11T15:40:50.744Z,1.20
2022-10-11T15:43:23.503Z,1.20
2022-10-11T15:45:50.926Z,1.60
2022-10-11T15:48:18.658Z,1.30
2022-10-11T15:50:45.464Z,1.77
2022-10-11T15:53:12.798Z,1.45
2022-10-11T15:55:45.224Z,1.30
2022-10-11T15:58:17.290Z,1.50
2022-10-11T16:03:13.144Z,2.75
2022-10-11T16:05:39.877Z,1.92
2022-10-11T16:08:06.731Z,1.50
2022-10-11T16:10:33.123Z,1.50
2022-10-11T16:12:59.490Z,1.40
2022-10-11T16:15:26.142Z,1.90
2022-10-11T16:17:52.512Z,1.92
2022-10-11T16:20:19.067Z,1.90
2022-10-11T16:22:45.385Z,1.52
2022-10-11T16:25:11.803Z,1.70
2022-10-11T16:27:38.110Z,1.70
2022-10-11T16:30:04.887Z,1.52
2022-10-11T16:32:33.233Z,2.10
2022-10-11T16:34:59.831Z,1.80
2022-10-11T16:37:26.144Z,1.70
2022-10-11T16:39:52.454Z,1.90
2022-10-11T16:42:18.742Z,1.92
2022-10-11T16:44:45.063Z,2.38
2022-10-11T16:47:11.421Z,1.65
2022-10-11T16:49:37.805Z,1.60
2022-10-11T16:52:04.529Z,1.88
2022-10-11T16:54:31.315Z,1.70
2022-10-11T16:56:59.240Z,1.50
2022-10-11T16:59:25.629Z,1.70
2022-10-11T17:01:51.926Z,2.47
2022-10-11T17:04:18.467Z,2.17
2022-10-11T17:06:45.005Z,2.47
2022-10-11T17:09:11.652Z,2.75
2022-10-11T17:11:38.015Z,2.60
2022-10-11T17:14:04.601Z,1.95
2022-10-11T17:16:30.919Z,2.13
2022-10-11T17:18:57.432Z,1.73
2022-10-11T17:21:24.479Z,1.80
2022-10-11T17:23:51.169Z,2.63
2022-10-11T17:26:20.614Z,3.20
2022-10-11T17:28:47.166Z,2.80
2022-10-11T17:31:13.669Z,3.28
2022-10-11T17:33:39.998Z,2.83
2022-10-11T17:36:28.752Z,2.47
2022-10-11T17:38:55.078Z,2.50
2022-10-11T17:41:21.375Z,2.15
2022-10-11T17:43:48.299Z,2.13
2022-10-11T17:46:15.822Z,2.70
2022-10-11T17:48:42.170Z,2.83
2022-10-11T17:51:15.196Z,3.00
2022-10-11T17:53:42.056Z,3.05
2022-10-11T17:56:10.994Z,2.55
2022-10-11T17:58:37.782Z,2.40
2022-10-11T18:01:10.079Z,2.22
2022-10-11T18:03:37.154Z,2.40
2022-10-11T18:06:05.371Z,2.90
2022-10-11T18:08:37.744Z,2.88
2022-10-11T18:11:16.197Z,2.40
2022-10-11T18:13:43.334Z,2.33
2022-10-11T18:16:10.287Z,2.10
2022-10-11T18:18:37.044Z,2.20
2022-10-11T18:21:03.668Z,3.47
2022-10-11T18:23:31.604Z,3.60
2022-10-11T18:25:58.106Z,4.03
2022-10-11T18:28:24.592Z,3.53
2022-10-11T18:30:50.962Z,4.10
2022-10-11T18:33:17.291Z,3.40
2022-10-11T18:35:43.592Z,3.20
2022-10-11T18:38:10.171Z,3.63
2022-10-11T18:40:40.416Z,3.30
2022-10-11T18:43:09.812Z,3.03
2022-10-11T18:45:36.099Z,3.40
2022-10-11T18:48:02.430Z,3.80
2022-10-11T18:50:28.735Z,4.72
2022-10-11T18:52:55.089Z,4.53
2022-10-11T18:55:21.512Z,3.75
2022-10-11T18:57:47.814Z,3.40
2022-10-11T19:00:39.155Z,3.75
2022-10-11T19:03:00.961Z,3.38
2022-10-11T19:05:27.266Z,3.03
2022-10-11T19:07:53.573Z,3.72
2022-10-11T19:10:19.893Z,3.25
2022-10-11T19:12:46.180Z,2.70
2022-10-11T19:15:12.495Z,3.15
2022-10-11T19:17:39.064Z,3.42
2022-10-11T19:20:05.711Z,3.33
2022-10-11T19:22:32.006Z,3.35
2022-10-11T19:24:58.333Z,4.85
2022-10-11T19:27:24.659Z,5.68
2022-10-11T19:29:50.996Z,4.88
2022-10-11T19:32:17.417Z,5.00
2022-10-11T19:34:43.740Z,4.57
2022-10-11T19:37:10.076Z,4.47
2022-10-11T19:39:36.404Z,5.93
2022-10-11T19:42:05.033Z,3.90
2022-10-11T19:44:34.510Z,4.18
2022-10-11T19:49:31.815Z,4.28
2022-10-11T19:51:58.103Z,3.22
2022-10-11T19:54:24.699Z,3.10
2022-10-11T19:56:51.174Z,2.83
2022-10-11T19:59:17.570Z,2.95
2022-10-11T20:01:49.366Z,5.25
2022-10-11T20:04:39.693Z,5.93
2022-10-11T20:07:04.880Z,5.18
2022-10-11T20:09:31.293Z,4.50
2022-10-11T20:11:57.911Z,4.22
2022-10-11T20:14:24.560Z,4.00
2022-10-11T20:16:50.948Z,3.95
2022-10-11T20:19:17.364Z,4.63
2022-10-11T20:21:43.943Z,4.72
2022-10-11T20:24:10.600Z,4.55
2022-10-11T20:26:36.945Z,5.60
2022-10-11T20:29:03.277Z,4.43
2022-10-11T20:31:32.170Z,5.07
2022-10-11T20:34:01.215Z,4.65
2022-10-11T20:36:29.472Z,3.28
2022-10-11T20:38:57.097Z,2.67
2022-10-11T20:41:26.094Z,2.58
2022-10-11T20:43:54.877Z,2.50
2022-10-11T20:46:24.203Z,3.80
2022-10-11T20:49:01.147Z,3.47
2022-10-11T20:51:29.194Z,4.60
2022-10-11T20:53:55.540Z,3.30
2022-10-11T20:56:22.628Z,3.58
2022-10-11T20:58:53.593Z,2.08
2022-10-11T21:01:22.435Z,2.40
2022-10-11T21:03:48.896Z,2.53
2022-10-11T21:06:15.198Z,2.50
2022-10-11T21:08:41.534Z,2.50
2022-10-11T21:11:08.903Z,2.42
2022-10-11T21:13:35.901Z,2.63
2022-10-11T21:16:13.040Z,2.92
2022-10-11T21:18:39.422Z,3.10
2022-10-11T21:21:10.393Z,3.40
2022-10-11T21:23:36.750Z,2.90
2022-10-11T21:26:05.381Z,2.63
2022-10-11T21:28:31.802Z,4.45
2022-10-11T21:31:09.935Z,4.72
2022-10-11T21:33:37.230Z,3.88
2022-10-11T21:36:05.498Z,2.95
2022-10-11T21:38:32.322Z,3.35
2022-10-11T21:40:58.653Z,3.35
2022-10-11T21:43:24.949Z,3.10
2022-10-11T21:48:17.596Z,2.40
2022-10-11T21:50:43.889Z,2.67
2022-10-11T21:55:36.605Z,2.70
2022-10-11T21:58:02.916Z,3.33
2022-10-11T22:02:55.716Z,4.22
2022-10-11T22:05:22.031Z,4.30
2022-10-11T22:10:14.679Z,5.38
2022-10-11T22:12:40.993Z,6.80
2022-10-11T22:17:33.851Z,5.70
2022-10-11T22:22:26.418Z,3.38
2022-10-11T22:24:52.714Z,2.90
2022-10-11T22:29:45.390Z,2.80
2022-10-11T22:34:37.949Z,2.42
2022-10-11T22:39:30.630Z,2.92
2022-10-11T22:41:56.956Z,2.97
2022-10-11T22:46:49.502Z,2.55
2022-10-11T22:51:42.047Z,2.28
2022-10-11T22:56:34.613Z,2.67
2022-10-11T23:01:27.206Z,2.65
2022-10-11T23:06:20.475Z,3.58
2022-10-11T23:08:46.794Z,4.40
2022-10-11T23:13:39.471Z,3.55
2022-10-11T23:18:36.606Z,2.17
2022-10-11T23:21:03.859Z,4.38
2022-10-11T23:23:30.200Z,2.60
2022-10-11T23:28:42.928Z,2.38
2022-10-11T23:31:16.091Z,2.35
2022-10-11T23:33:43.672Z,2.85
2022-10-11T23:36:18.954Z,2.95
2022-10-11T23:38:49.382Z,2.53
2022-10-11T23:41:15.695Z,2.40
2022-10-11T23:46:08.297Z,2.58
2022-10-11T23:51:00.802Z,2.70
2022-10-11T23:55:53.358Z,3.55
